sensor_id;sensor_type;location;lat;lon;timestamp;P1;durP1;ratioP1;P2;durP2;ratioP2
9438;SDS011;5176;42.622;25.386;2022-12-07T00:01:57;21.03;;;15.40;;
9438;SDS011;5176;42.622;25.386;2022-12-07T00:04:24;21.97;;;14.77;;
9438;SDS011;5176;42.622;25.386;2022-12-07T00:06:53;22.30;;;15.30;;
9438;SDS011;5176;42.622;25.386;2022-12-07T00:09:20;22.40;;;16.10;;
9438;SDS011;5176;42.622;25.386;2022-12-07T00:11:48;19.07;;;13.97;;
9438;SDS011;5176;42.622;25.386;2022-12-07T00:14:17;20.03;;;14.33;;
9438;SDS011;5176;42.622;25.386;2022-12-07T00:16:45;23.10;;;14.57;;
9438;SDS011;5176;42.622;25.386;2022-12-07T00:19:15;19.30;;;13.60;;
9438;SDS011;5176;42.622;25.386;2022-12-07T00:21:42;21.27;;;14.33;;
9438;SDS011;5176;42.622;25.386;2022-12-07T00:24:11;19.40;;;13.53;;
9438;SDS011;5176;42.622;25.386;2022-12-07T00:26:39;21.20;;;13.43;;
9438;SDS011;5176;42.622;25.386;2022-12-07T00:29:09;19.47;;;13.63;;
9438;SDS011;5176;42.622;25.386;2022-12-07T00:31:41;18.30;;;13.27;;
9438;SDS011;5176;42.622;25.386;2022-12-07T00:34:11;16.40;;;12.50;;
9438;SDS011;5176;42.622;25.386;2022-12-07T00:36:40;18.67;;;12.27;;
9438;SDS011;5176;42.622;25.386;2022-12-07T00:39:07;20.97;;;12.37;;
9438;SDS011;5176;42.622;25.386;2022-12-07T00:41:36;20.90;;;12.43;;
9438;SDS011;5176;42.622;25.386;2022-12-07T00:44:03;19.03;;;12.20;;
9438;SDS011;5176;42.622;25.386;2022-12-07T00:46:31;17.70;;;12.90;;
9438;SDS011;5176;42.622;25.386;2022-12-07T00:48:58;16.27;;;12.53;;
9438;SDS011;5176;42.622;25.386;2022-12-07T00:51:25;17.37;;;11.80;;
9438;SDS011;5176;42.622;25.386;2022-12-07T00:53:53;18.07;;;12.53;;
9438;SDS011;5176;42.622;25.386;2022-12-07T00:56:21;22.43;;;12.80;;
9438;SDS011;5176;42.622;25.386;2022-12-07T00:58:51;15.57;;;12.23;;
9438;SDS011;5176;42.622;25.386;2022-12-07T01:01:21;20.13;;;12.80;;
9438;SDS011;5176;42.622;25.386;2022-12-07T01:03:48;22.83;;;12.63;;
9438;SDS011;5176;42.622;25.386;2022-12-07T01:06:16;18.67;;;12.43;;
9438;SDS011;5176;42.622;25.386;2022-12-07T01:08:44;16.17;;;11.33;;
9438;SDS011;5176;42.622;25.386;2022-12-07T01:11:12;15.57;;;10.73;;
9438;SDS011;5176;42.622;25.386;2022-12-07T01:13:40;14.10;;;10.20;;
9438;SDS011;5176;42.622;25.386;2022-12-07T01:16:11;18.60;;;10.73;;
9438;SDS011;5176;42.622;25.386;2022-12-07T01:18:39;15.50;;;9.93;;
9438;SDS011;5176;42.622;25.386;2022-12-07T01:21:08;15.40;;;10.67;;
9438;SDS011;5176;42.622;25.386;2022-12-07T01:23:37;17.23;;;11.57;;
9438;SDS011;5176;42.622;25.386;2022-12-07T01:26:07;16.97;;;10.93;;
9438;SDS011;5176;42.622;25.386;2022-12-07T01:28:37;14.93;;;10.63;;
9438;SDS011;5176;42.622;25.386;2022-12-07T01:31:05;19.27;;;11.53;;
9438;SDS011;5176;42.622;25.386;2022-12-07T01:33:36;15.87;;;10.73;;
9438;SDS011;5176;42.622;25.386;2022-12-07T01:36:05;14.93;;;10.50;;
9438;SDS011;5176;42.622;25.386;2022-12-07T01:38:33;18.23;;;11.00;;
9438;SDS011;5176;42.622;25.386;2022-12-07T01:41:01;14.30;;;9.80;;
9438;SDS011;5176;42.622;25.386;2022-12-07T01:43:29;13.93;;;9.63;;
9438;SDS011;5176;42.622;25.386;2022-12-07T01:45:58;13.27;;;9.40;;
9438;SDS011;5176;42.622;25.386;2022-12-07T01:48:26;13.93;;;9.87;;
9438;SDS011;5176;42.622;25.386;2022-12-07T01:51:00;13.63;;;9.27;;
9438;SDS011;5176;42.622;25.386;2022-12-07T01:53:31;16.77;;;11.70;;
9438;SDS011;5176;42.622;25.386;2022-12-07T01:56:01;18.17;;;12.30;;
9438;SDS011;5176;42.622;25.386;2022-12-07T01:58:28;14.37;;;9.87;;
9438;SDS011;5176;42.622;25.386;2022-12-07T02:00:55;14.70;;;10.27;;
9438;SDS011;5176;42.622;25.386;2022-12-07T02:03:24;15.70;;;10.53;;
9438;SDS011;5176;42.622;25.386;2022-12-07T02:05:57;14.67;;;10.33;;
9438;SDS011;5176;42.622;25.386;2022-12-07T02:08:27;17.43;;;10.37;;
9438;SDS011;5176;42.622;25.386;2022-12-07T02:10:55;14.93;;;9.30;;
9438;SDS011;5176;42.622;25.386;2022-12-07T02:13:23;13.70;;;9.20;;
9438;SDS011;5176;42.622;25.386;2022-12-07T02:16:01;17.47;;;11.70;;
9438;SDS011;5176;42.622;25.386;2022-12-07T02:18:40;21.33;;;12.40;;
9438;SDS011;5176;42.622;25.386;2022-12-07T02:21:16;19.17;;;10.70;;
9438;SDS011;5176;42.622;25.386;2022-12-07T02:24:13;16.83;;;11.10;;
9438;SDS011;5176;42.622;25.386;2022-12-07T02:29:56;15.60;;;11.53;;
9438;SDS011;5176;42.622;25.386;2022-12-07T02:32:27;18.40;;;11.47;;
9438;SDS011;5176;42.622;25.386;2022-12-07T02:35:04;14.00;;;10.70;;
9438;SDS011;5176;42.622;25.386;2022-12-07T02:37:34;18.10;;;11.23;;
9438;SDS011;5176;42.622;25.386;2022-12-07T02:40:09;16.93;;;10.73;;
9438;SDS011;5176;42.622;25.386;2022-12-07T02:42:40;14.50;;;9.90;;
9438;SDS011;5176;42.622;25.386;2022-12-07T02:45:14;16.10;;;10.57;;
9438;SDS011;5176;42.622;25.386;2022-12-07T02:47:47;14.57;;;10.67;;
9438;SDS011;5176;42.622;25.386;2022-12-07T02:50:18;16.33;;;10.53;;
9438;SDS011;5176;42.622;25.386;2022-12-07T02:52:46;13.17;;;8.93;;
9438;SDS011;5176;42.622;25.386;2022-12-07T02:55:13;14.97;;;9.97;;
9438;SDS011;5176;42.622;25.386;2022-12-07T02:57:50;15.20;;;10.10;;
9438;SDS011;5176;42.622;25.386;2022-12-07T03:00:29;16.47;;;11.30;;
9438;SDS011;5176;42.622;25.386;2022-12-07T03:03:08;20.63;;;12.03;;
9438;SDS011;5176;42.622;25.386;2022-12-07T03:05:46;19.20;;;12.97;;
9438;SDS011;5176;42.622;25.386;2022-12-07T03:08:30;18.50;;;12.07;;
9438;SDS011;5176;42.622;25.386;2022-12-07T03:11:11;16.67;;;10.93;;
9438;SDS011;5176;42.622;25.386;2022-12-07T03:13:45;18.07;;;10.73;;
9438;SDS011;5176;42.622;25.386;2022-12-07T03:16:19;17.43;;;12.03;;
9438;SDS011;5176;42.622;25.386;2022-12-07T03:18:52;16.60;;;11.50;;
9438;SDS011;5176;42.622;25.386;2022-12-07T03:21:23;20.03;;;12.53;;
9438;SDS011;5176;42.622;25.386;2022-12-07T03:23:56;16.83;;;11.40;;
9438;SDS011;5176;42.622;25.386;2022-12-07T03:26:27;16.60;;;11.93;;
9438;SDS011;5176;42.622;25.386;2022-12-07T03:28:59;17.70;;;12.57;;
9438;SDS011;5176;42.622;25.386;2022-12-07T03:31:35;17.63;;;12.83;;
9438;SDS011;5176;42.622;25.386;2022-12-07T03:34:07;25.80;;;14.83;;
9438;SDS011;5176;42.622;25.386;2022-12-07T03:36:42;21.20;;;13.47;;
9438;SDS011;5176;42.622;25.386;2022-12-07T03:39:14;23.67;;;14.30;;
9438;SDS011;5176;42.622;25.386;2022-12-07T03:41:49;20.00;;;13.93;;
9438;SDS011;5176;42.622;25.386;2022-12-07T03:44:17;20.37;;;13.00;;
9438;SDS011;5176;42.622;25.386;2022-12-07T03:46:49;19.17;;;13.90;;
9438;SDS011;5176;42.622;25.386;2022-12-07T03:49:23;17.20;;;11.70;;
9438;SDS011;5176;42.622;25.386;2022-12-07T03:51:55;21.50;;;12.03;;
9438;SDS011;5176;42.622;25.386;2022-12-07T03:54:29;17.00;;;11.03;;
9438;SDS011;5176;42.622;25.386;2022-12-07T03:57:01;15.93;;;11.53;;
9438;SDS011;5176;42.622;25.386;2022-12-07T03:59:31;17.50;;;12.83;;
9438;SDS011;5176;42.622;25.386;2022-12-07T04:02:04;17.23;;;11.40;;
9438;SDS011;5176;42.622;25.386;2022-12-07T04:04:32;18.67;;;12.33;;
9438;SDS011;5176;42.622;25.386;2022-12-07T04:07:00;17.30;;;12.93;;
9438;SDS011;5176;42.622;25.386;2022-12-07T04:09:28;24.50;;;15.23;;
9438;SDS011;5176;42.622;25.386;2022-12-07T04:11:55;21.67;;;15.33;;
9438;SDS011;5176;42.622;25.386;2022-12-07T04:14:22;21.50;;;13.60;;
9438;SDS011;5176;42.622;25.386;2022-12-07T04:16:50;17.57;;;10.70;;
9438;SDS011;5176;42.622;25.386;2022-12-07T04:19:21;15.73;;;11.47;;
9438;SDS011;5176;42.622;25.386;2022-12-07T04:21:50;17.30;;;10.93;;
9438;SDS011;5176;42.622;25.386;2022-12-07T04:24:17;19.47;;;12.43;;
9438;SDS011;5176;42.622;25.386;2022-12-07T04:26:45;21.30;;;12.57;;
9438;SDS011;5176;42.622;25.386;2022-12-07T04:29:13;20.83;;;13.60;;
9438;SDS011;5176;42.622;25.386;2022-12-07T04:31:41;23.63;;;15.23;;
9438;SDS011;5176;42.622;25.386;2022-12-07T04:34:09;21.27;;;14.40;;
9438;SDS011;5176;42.622;25.386;2022-12-07T04:36:39;20.03;;;13.60;;
9438;SDS011;5176;42.622;25.386;2022-12-07T04:39:07;22.87;;;14.90;;
9438;SDS011;5176;42.622;25.386;2022-12-07T04:41:37;17.83;;;12.67;;
9438;SDS011;5176;42.622;25.386;2022-12-07T04:44:04;14.33;;;11.33;;
9438;SDS011;5176;42.622;25.386;2022-12-07T04:46:32;15.83;;;10.70;;
9438;SDS011;5176;42.622;25.386;2022-12-07T04:49:01;17.97;;;12.27;;
9438;SDS011;5176;42.622;25.386;2022-12-07T04:51:28;15.30;;;10.73;;
9438;SDS011;5176;42.622;25.386;2022-12-07T04:53:57;16.87;;;11.67;;
9438;SDS011;5176;42.622;25.386;2022-12-07T04:56:25;16.00;;;11.23;;
9438;SDS011;5176;42.622;25.386;2022-12-07T04:58:53;22.53;;;12.07;;
9438;SDS011;5176;42.622;25.386;2022-12-07T05:01:22;18.03;;;12.27;;
9438;SDS011;5176;42.622;25.386;2022-12-07T05:03:50;18.27;;;12.40;;
9438;SDS011;5176;42.622;25.386;2022-12-07T05:06:17;19.03;;;13.60;;
9438;SDS011;5176;42.622;25.386;2022-12-07T05:08:44;21.40;;;15.57;;
9438;SDS011;5176;42.622;25.386;2022-12-07T05:11:13;21.80;;;14.73;;
9438;SDS011;5176;42.622;25.386;2022-12-07T05:13:55;26.83;;;15.83;;
9438;SDS011;5176;42.622;25.386;2022-12-07T05:16:22;22.97;;;14.33;;
9438;SDS011;5176;42.622;25.386;2022-12-07T05:18:50;23.63;;;14.00;;
9438;SDS011;5176;42.622;25.386;2022-12-07T05:21:17;24.77;;;15.70;;
9438;SDS011;5176;42.622;25.386;2022-12-07T05:23:45;24.37;;;17.33;;
9438;SDS011;5176;42.622;25.386;2022-12-07T05:26:15;23.13;;;15.70;;
9438;SDS011;5176;42.622;25.386;2022-12-07T05:28:42;21.80;;;14.43;;
9438;SDS011;5176;42.622;25.386;2022-12-07T05:31:09;25.17;;;14.90;;
9438;SDS011;5176;42.622;25.386;2022-12-07T05:33:37;21.17;;;13.87;;
9438;SDS011;5176;42.622;25.386;2022-12-07T05:36:04;24.17;;;15.23;;
9438;SDS011;5176;42.622;25.386;2022-12-07T05:38:32;30.30;;;20.10;;
9438;SDS011;5176;42.622;25.386;2022-12-07T05:41:00;25.47;;;18.27;;
9438;SDS011;5176;42.622;25.386;2022-12-07T05:43:30;28.27;;;18.30;;
9438;SDS011;5176;42.622;25.386;2022-12-07T05:45:58;22.73;;;16.20;;
9438;SDS011;5176;42.622;25.386;2022-12-07T05:48:25;29.90;;;19.67;;
9438;SDS011;5176;42.622;25.386;2022-12-07T05:50:52;28.03;;;18.37;;
9438;SDS011;5176;42.622;25.386;2022-12-07T05:53:20;25.27;;;17.03;;
9438;SDS011;5176;42.622;25.386;2022-12-07T05:55:48;25.13;;;15.97;;
9438;SDS011;5176;42.622;25.386;2022-12-07T05:58:15;24.67;;;16.97;;
9438;SDS011;5176;42.622;25.386;2022-12-07T06:01:01;26.23;;;16.50;;
9438;SDS011;5176;42.622;25.386;2022-12-07T06:03:28;29.77;;;19.40;;
9438;SDS011;5176;42.622;25.386;2022-12-07T06:05:55;24.80;;;15.43;;
9438;SDS011;5176;42.622;25.386;2022-12-07T06:08:23;29.90;;;20.27;;
9438;SDS011;5176;42.622;25.386;2022-12-07T06:10:50;33.67;;;22.33;;
9438;SDS011;5176;42.622;25.386;2022-12-07T06:13:38;31.37;;;23.07;;
9438;SDS011;5176;42.622;25.386;2022-12-07T06:16:06;33.50;;;23.00;;
9438;SDS011;5176;42.622;25.386;2022-12-07T06:18:33;35.40;;;22.93;;
9438;SDS011;5176;42.622;25.386;2022-12-07T06:21:01;30.57;;;21.03;;
9438;SDS011;5176;42.622;25.386;2022-12-07T06:23:28;29.07;;;19.70;;
9438;SDS011;5176;42.622;25.386;2022-12-07T06:25:56;29.73;;;20.73;;
9438;SDS011;5176;42.622;25.386;2022-12-07T06:28:23;31.70;;;20.50;;
9438;SDS011;5176;42.622;25.386;2022-12-07T06:30:56;26.07;;;18.30;;
9438;SDS011;5176;42.622;25.386;2022-12-07T06:33:27;27.33;;;17.77;;
9438;SDS011;5176;42.622;25.386;2022-12-07T06:35:55;25.03;;;18.53;;
9438;SDS011;5176;42.622;25.386;2022-12-07T06:38:22;24.23;;;17.57;;
9438;SDS011;5176;42.622;25.386;2022-12-07T06:40:50;31.20;;;18.83;;
9438;SDS011;5176;42.622;25.386;2022-12-07T06:43:17;31.83;;;21.80;;
9438;SDS011;5176;42.622;25.386;2022-12-07T06:45:45;33.03;;;26.77;;
9438;SDS011;5176;42.622;25.386;2022-12-07T06:48:12;29.27;;;20.87;;
9438;SDS011;5176;42.622;25.386;2022-12-07T06:50:41;25.57;;;19.27;;
9438;SDS011;5176;42.622;25.386;2022-12-07T06:53:10;35.40;;;23.03;;
9438;SDS011;5176;42.622;25.386;2022-12-07T06:55:38;66.50;;;45.50;;
9438;SDS011;5176;42.622;25.386;2022-12-07T06:58:07;55.70;;;38.67;;
9438;SDS011;5176;42.622;25.386;2022-12-07T11:56:48;21.03;;;16.00;;
9438;SDS011;5176;42.622;25.386;2022-12-07T11:59:19;41.10;;;30.50;;
9438;SDS011;5176;42.622;25.386;2022-12-07T12:01:57;18.90;;;12.93;;
9438;SDS011;5176;42.622;25.386;2022-12-07T12:04:38;21.90;;;14.03;;
9438;SDS011;5176;42.622;25.386;2022-12-07T12:07:15;17.20;;;12.30;;
9438;SDS011;5176;42.622;25.386;2022-12-07T12:09:48;26.37;;;14.43;;
9438;SDS011;5176;42.622;25.386;2022-12-07T12:12:33;19.77;;;11.90;;
9438;SDS011;5176;42.622;25.386;2022-12-07T12:15:26;20.40;;;13.10;;
9438;SDS011;5176;42.622;25.386;2022-12-07T12:18:22;18.70;;;12.17;;
9438;SDS011;5176;42.622;25.386;2022-12-07T12:21:02;17.67;;;12.40;;
9438;SDS011;5176;42.622;25.386;2022-12-07T12:23:36;20.73;;;13.07;;
9438;SDS011;5176;42.622;25.386;2022-12-07T12:26:08;19.83;;;12.70;;
9438;SDS011;5176;42.622;25.386;2022-12-07T12:28:51;20.40;;;12.07;;
9438;SDS011;5176;42.622;25.386;2022-12-07T12:31:37;17.93;;;11.17;;
9438;SDS011;5176;42.622;25.386;2022-12-07T12:36:57;22.77;;;13.27;;
9438;SDS011;5176;42.622;25.386;2022-12-07T12:39:24;18.30;;;13.30;;
9438;SDS011;5176;42.622;25.386;2022-12-07T12:41:56;25.70;;;18.90;;
9438;SDS011;5176;42.622;25.386;2022-12-07T12:50:31;22.90;;;13.97;;
9438;SDS011;5176;42.622;25.386;2022-12-07T12:53:12;23.23;;;15.87;;
9438;SDS011;5176;42.622;25.386;2022-12-07T12:58:41;25.80;;;17.30;;
9438;SDS011;5176;42.622;25.386;2022-12-07T13:04:17;23.43;;;14.00;;
9438;SDS011;5176;42.622;25.386;2022-12-07T13:10:20;28.03;;;18.40;;
9438;SDS011;5176;42.622;25.386;2022-12-07T13:12:56;20.63;;;14.13;;
9438;SDS011;5176;42.622;25.386;2022-12-07T13:15:31;26.20;;;15.70;;
9438;SDS011;5176;42.622;25.386;2022-12-07T13:18:00;21.57;;;15.37;;
9438;SDS011;5176;42.622;25.386;2022-12-07T13:23:25;23.07;;;15.80;;
9438;SDS011;5176;42.622;25.386;2022-12-07T13:26:04;24.00;;;16.23;;
9438;SDS011;5176;42.622;25.386;2022-12-07T13:28:41;23.40;;;16.73;;
9438;SDS011;5176;42.622;25.386;2022-12-07T13:31:17;26.10;;;15.73;;
9438;SDS011;5176;42.622;25.386;2022-12-07T13:33:50;24.30;;;16.03;;
9438;SDS011;5176;42.622;25.386;2022-12-07T13:36:20;23.77;;;16.27;;
9438;SDS011;5176;42.622;25.386;2022-12-07T13:38:51;27.43;;;15.73;;
9438;SDS011;5176;42.622;25.386;2022-12-07T13:41:21;28.13;;;18.13;;
9438;SDS011;5176;42.622;25.386;2022-12-07T13:43:50;26.63;;;18.73;;
9438;SDS011;5176;42.622;25.386;2022-12-07T13:46:22;28.03;;;17.80;;
9438;SDS011;5176;42.622;25.386;2022-12-07T13:48:56;25.83;;;18.20;;
9438;SDS011;5176;42.622;25.386;2022-12-07T13:51:25;25.57;;;17.80;;
9438;SDS011;5176;42.622;25.386;2022-12-07T13:53:55;23.27;;;16.77;;
9438;SDS011;5176;42.622;25.386;2022-12-07T13:56:26;27.90;;;19.37;;
9438;SDS011;5176;42.622;25.386;2022-12-07T13:58:59;23.60;;;16.97;;
9438;SDS011;5176;42.622;25.386;2022-12-07T14:01:28;23.60;;;17.17;;
9438;SDS011;5176;42.622;25.386;2022-12-07T14:06:49;35.33;;;22.27;;
9438;SDS011;5176;42.622;25.386;2022-12-07T14:09:18;27.17;;;19.00;;
9438;SDS011;5176;42.622;25.386;2022-12-07T14:11:47;26.77;;;18.23;;
9438;SDS011;5176;42.622;25.386;2022-12-07T14:14:17;23.70;;;16.37;;
9438;SDS011;5176;42.622;25.386;2022-12-07T14:16:54;29.13;;;20.53;;
9438;SDS011;5176;42.622;25.386;2022-12-07T14:19:43;27.33;;;18.47;;
9438;SDS011;5176;42.622;25.386;2022-12-07T14:22:20;28.67;;;19.53;;
9438;SDS011;5176;42.622;25.386;2022-12-07T14:24:50;29.10;;;20.00;;
9438;SDS011;5176;42.622;25.386;2022-12-07T14:27:24;25.60;;;18.40;;
9438;SDS011;5176;42.622;25.386;2022-12-07T14:29:59;29.03;;;19.40;;
9438;SDS011;5176;42.622;25.386;2022-12-07T14:32:29;29.43;;;18.47;;
9438;SDS011;5176;42.622;25.386;2022-12-07T14:34:58;28.40;;;20.13;;
9438;SDS011;5176;42.622;25.386;2022-12-07T14:37:29;34.00;;;20.87;;
9438;SDS011;5176;42.622;25.386;2022-12-07T14:39:57;32.07;;;21.97;;
9438;SDS011;5176;42.622;25.386;2022-12-07T14:42:27;37.33;;;22.03;;
9438;SDS011;5176;42.622;25.386;2022-12-07T14:44:57;33.53;;;22.03;;
9438;SDS011;5176;42.622;25.386;2022-12-07T14:47:25;35.07;;;22.67;;
9438;SDS011;5176;42.622;25.386;2022-12-07T14:49:53;38.10;;;22.37;;
9438;SDS011;5176;42.622;25.386;2022-12-07T14:52:21;39.67;;;24.00;;
9438;SDS011;5176;42.622;25.386;2022-12-07T14:54:55;34.97;;;23.07;;
9438;SDS011;5176;42.622;25.386;2022-12-07T14:57:24;36.13;;;23.70;;
9438;SDS011;5176;42.622;25.386;2022-12-07T14:59:52;41.57;;;25.03;;
9438;SDS011;5176;42.622;25.386;2022-12-07T15:02:20;40.70;;;24.20;;
9438;SDS011;5176;42.622;25.386;2022-12-07T15:04:48;37.17;;;24.27;;
9438;SDS011;5176;42.622;25.386;2022-12-07T15:07:17;52.97;;;26.23;;
9438;SDS011;5176;42.622;25.386;2022-12-07T15:09:47;49.03;;;29.07;;
9438;SDS011;5176;42.622;25.386;2022-12-07T15:12:17;42.87;;;28.40;;
9438;SDS011;5176;42.622;25.386;2022-12-07T15:14:44;60.60;;;32.97;;
9438;SDS011;5176;42.622;25.386;2022-12-07T15:17:12;53.60;;;33.37;;
9438;SDS011;5176;42.622;25.386;2022-12-07T15:19:41;65.50;;;37.07;;
9438;SDS011;5176;42.622;25.386;2022-12-07T15:22:08;73.27;;;37.37;;
9438;SDS011;5176;42.622;25.386;2022-12-07T15:24:36;72.83;;;36.27;;
9438;SDS011;5176;42.622;25.386;2022-12-07T15:27:04;58.40;;;35.87;;
9438;SDS011;5176;42.622;25.386;2022-12-07T15:29:34;73.60;;;37.67;;
9438;SDS011;5176;42.622;25.386;2022-12-07T15:32:03;70.93;;;38.20;;
9438;SDS011;5176;42.622;25.386;2022-12-07T15:34:31;98.13;;;51.77;;
9438;SDS011;5176;42.622;25.386;2022-12-07T15:36:58;74.97;;;46.67;;
9438;SDS011;5176;42.622;25.386;2022-12-07T15:39:27;62.63;;;39.47;;
9438;SDS011;5176;42.622;25.386;2022-12-07T15:41:54;67.87;;;40.93;;
9438;SDS011;5176;42.622;25.386;2022-12-07T15:44:22;69.40;;;39.40;;
9438;SDS011;5176;42.622;25.386;2022-12-07T15:47:09;81.30;;;42.40;;
9438;SDS011;5176;42.622;25.386;2022-12-07T15:49:36;61.97;;;42.80;;
9438;SDS011;5176;42.622;25.386;2022-12-07T15:52:03;66.20;;;43.30;;
9438;SDS011;5176;42.622;25.386;2022-12-07T15:54:31;79.00;;;48.43;;
9438;SDS011;5176;42.622;25.386;2022-12-07T15:56:59;91.27;;;56.90;;
9438;SDS011;5176;42.622;25.386;2022-12-07T15:59:26;91.70;;;55.57;;
9438;SDS011;5176;42.622;25.386;2022-12-07T16:01:54;86.27;;;60.43;;
9438;SDS011;5176;42.622;25.386;2022-12-07T16:04:26;111.90;;;74.63;;
9438;SDS011;5176;42.622;25.386;2022-12-07T16:06:54;107.17;;;67.23;;
9438;SDS011;5176;42.622;25.386;2022-12-07T16:09:23;99.77;;;66.73;;
9438;SDS011;5176;42.622;25.386;2022-12-07T16:11:52;114.33;;;72.30;;
9438;SDS011;5176;42.622;25.386;2022-12-07T16:14:19;156.10;;;96.10;;
9438;SDS011;5176;42.622;25.386;2022-12-07T16:16:47;175.50;;;102.70;;
9438;SDS011;5176;42.622;25.386;2022-12-07T16:19:15;116.67;;;74.10;;
9438;SDS011;5176;42.622;25.386;2022-12-07T16:21:46;104.70;;;70.30;;
9438;SDS011;5176;42.622;25.386;2022-12-07T16:24:15;96.40;;;63.93;;
9438;SDS011;5176;42.622;25.386;2022-12-07T16:26:43;93.70;;;60.37;;
9438;SDS011;5176;42.622;25.386;2022-12-07T16:29:11;89.40;;;57.20;;
9438;SDS011;5176;42.622;25.386;2022-12-07T16:31:40;83.63;;;54.80;;
9438;SDS011;5176;42.622;25.386;2022-12-07T16:34:08;101.63;;;55.93;;
9438;SDS011;5176;42.622;25.386;2022-12-07T16:36:36;77.23;;;52.00;;
9438;SDS011;5176;42.622;25.386;2022-12-07T16:39:05;65.47;;;46.77;;
9438;SDS011;5176;42.622;25.386;2022-12-07T16:41:33;67.93;;;46.00;;
9438;SDS011;5176;42.622;25.386;2022-12-07T16:44:02;63.97;;;45.27;;
9438;SDS011;5176;42.622;25.386;2022-12-07T16:46:31;82.37;;;50.87;;
9438;SDS011;5176;42.622;25.386;2022-12-07T16:48:59;105.97;;;65.17;;
9438;SDS011;5176;42.622;25.386;2022-12-07T16:51:26;65.33;;;41.57;;
9438;SDS011;5176;42.622;25.386;2022-12-07T16:53:54;68.03;;;43.47;;
9438;SDS011;5176;42.622;25.386;2022-12-07T16:56:23;69.93;;;44.17;;
9438;SDS011;5176;42.622;25.386;2022-12-07T16:58:51;67.37;;;42.87;;
9438;SDS011;5176;42.622;25.386;2022-12-07T17:01:20;64.73;;;44.97;;
9438;SDS011;5176;42.622;25.386;2022-12-07T17:03:48;65.90;;;44.60;;
9438;SDS011;5176;42.622;25.386;2022-12-07T17:06:18;58.10;;;40.23;;
9438;SDS011;5176;42.622;25.386;2022-12-07T17:08:46;52.30;;;36.47;;
9438;SDS011;5176;42.622;25.386;2022-12-07T17:11:16;53.03;;;35.73;;
9438;SDS011;5176;42.622;25.386;2022-12-07T17:13:46;285.00;;;49.93;;
9438;SDS011;5176;42.622;25.386;2022-12-07T17:16:31;84.93;;;35.53;;
9438;SDS011;5176;42.622;25.386;2022-12-07T17:19:00;60.73;;;32.57;;
9438;SDS011;5176;42.622;25.386;2022-12-07T17:21:30;49.40;;;31.17;;
9438;SDS011;5176;42.622;25.386;2022-12-07T17:24:02;46.10;;;29.83;;
9438;SDS011;5176;42.622;25.386;2022-12-07T17:26:30;56.23;;;34.67;;
9438;SDS011;5176;42.622;25.386;2022-12-07T17:29:00;58.83;;;38.97;;
9438;SDS011;5176;42.622;25.386;2022-12-07T17:31:28;56.23;;;41.17;;
9438;SDS011;5176;42.622;25.386;2022-12-07T17:33:55;53.87;;;37.70;;
9438;SDS011;5176;42.622;25.386;2022-12-07T17:36:23;118.50;;;39.23;;
9438;SDS011;5176;42.622;25.386;2022-12-07T17:38:52;201.27;;;41.53;;
9438;SDS011;5176;42.622;25.386;2022-12-07T17:41:20;121.47;;;41.60;;
9438;SDS011;5176;42.622;25.386;2022-12-07T17:44:10;49.47;;;33.80;;
9438;SDS011;5176;42.622;25.386;2022-12-07T17:46:38;50.60;;;34.63;;
9438;SDS011;5176;42.622;25.386;2022-12-07T17:49:06;45.93;;;32.13;;
9438;SDS011;5176;42.622;25.386;2022-12-07T17:51:34;46.97;;;29.20;;
9438;SDS011;5176;42.622;25.386;2022-12-07T17:54:18;44.50;;;29.77;;
9438;SDS011;5176;42.622;25.386;2022-12-07T17:56:46;42.63;;;29.43;;
9438;SDS011;5176;42.622;25.386;2022-12-07T17:59:16;46.90;;;30.37;;
9438;SDS011;5176;42.622;25.386;2022-12-07T18:01:44;42.87;;;29.07;;
9438;SDS011;5176;42.622;25.386;2022-12-07T18:04:12;47.00;;;30.60;;
9438;SDS011;5176;42.622;25.386;2022-12-07T18:06:39;36.00;;;28.53;;
9438;SDS011;5176;42.622;25.386;2022-12-07T18:09:07;39.83;;;26.67;;
9438;SDS011;5176;42.622;25.386;2022-12-07T18:11:35;41.13;;;27.83;;
9438;SDS011;5176;42.622;25.386;2022-12-07T18:14:05;43.70;;;31.23;;
9438;SDS011;5176;42.622;25.386;2022-12-07T18:16:34;50.40;;;34.30;;
9438;SDS011;5176;42.622;25.386;2022-12-07T18:19:03;49.17;;;33.93;;
9438;SDS011;5176;42.622;25.386;2022-12-07T18:21:32;49.83;;;35.77;;
9438;SDS011;5176;42.622;25.386;2022-12-07T18:24:02;59.23;;;36.80;;
9438;SDS011;5176;42.622;25.386;2022-12-07T18:26:31;49.50;;;36.37;;
9438;SDS011;5176;42.622;25.386;2022-12-07T18:29:00;44.63;;;29.07;;
9438;SDS011;5176;42.622;25.386;2022-12-07T18:31:27;46.47;;;29.90;;
9438;SDS011;5176;42.622;25.386;2022-12-07T18:33:58;48.30;;;35.07;;
9438;SDS011;5176;42.622;25.386;2022-12-07T18:36:28;44.07;;;33.07;;
9438;SDS011;5176;42.622;25.386;2022-12-07T18:38:55;51.93;;;32.77;;
9438;SDS011;5176;42.622;25.386;2022-12-07T18:41:24;44.67;;;32.67;;
9438;SDS011;5176;42.622;25.386;2022-12-07T18:43:52;37.70;;;28.67;;
9438;SDS011;5176;42.622;25.386;2022-12-07T18:46:19;42.20;;;30.50;;
9438;SDS011;5176;42.622;25.386;2022-12-07T18:48:47;48.33;;;35.73;;
9438;SDS011;5176;42.622;25.386;2022-12-07T18:51:17;52.03;;;35.43;;
9438;SDS011;5176;42.622;25.386;2022-12-07T18:53:46;53.87;;;34.57;;
9438;SDS011;5176;42.622;25.386;2022-12-07T18:56:14;55.10;;;34.43;;
9438;SDS011;5176;42.622;25.386;2022-12-07T18:58:47;59.20;;;38.63;;
9438;SDS011;5176;42.622;25.386;2022-12-07T19:01:33;52.57;;;36.30;;
9438;SDS011;5176;42.622;25.386;2022-12-07T19:04:00;52.73;;;36.00;;
9438;SDS011;5176;42.622;25.386;2022-12-07T19:06:30;45.77;;;34.20;;
9438;SDS011;5176;42.622;25.386;2022-12-07T19:08:57;47.43;;;32.63;;
9438;SDS011;5176;42.622;25.386;2022-12-07T19:11:26;71.00;;;51.77;;
9438;SDS011;5176;42.622;25.386;2022-12-07T19:14:10;53.33;;;37.97;;
9438;SDS011;5176;42.622;25.386;2022-12-07T19:16:39;55.30;;;37.57;;
9438;SDS011;5176;42.622;25.386;2022-12-07T19:19:07;48.83;;;33.80;;
9438;SDS011;5176;42.622;25.386;2022-12-07T19:21:36;51.87;;;36.80;;
9438;SDS011;5176;42.622;25.386;2022-12-07T19:24:04;47.17;;;35.13;;
9438;SDS011;5176;42.622;25.386;2022-12-07T19:26:32;50.63;;;32.30;;
9438;SDS011;5176;42.622;25.386;2022-12-07T19:29:01;48.93;;;35.60;;
9438;SDS011;5176;42.622;25.386;2022-12-07T19:31:28;43.17;;;32.73;;
9438;SDS011;5176;42.622;25.386;2022-12-07T19:33:55;54.17;;;37.83;;
9438;SDS011;5176;42.622;25.386;2022-12-07T19:36:23;57.10;;;39.53;;
9438;SDS011;5176;42.622;25.386;2022-12-07T19:38:53;51.93;;;37.87;;
9438;SDS011;5176;42.622;25.386;2022-12-07T19:41:20;53.50;;;36.73;;
9438;SDS011;5176;42.622;25.386;2022-12-07T19:44:04;50.63;;;34.13;;
9438;SDS011;5176;42.622;25.386;2022-12-07T19:46:35;41.10;;;28.53;;
9438;SDS011;5176;42.622;25.386;2022-12-07T19:49:02;38.20;;;28.60;;
9438;SDS011;5176;42.622;25.386;2022-12-07T19:51:29;34.43;;;24.93;;
9438;SDS011;5176;42.622;25.386;2022-12-07T19:53:59;36.57;;;25.00;;
9438;SDS011;5176;42.622;25.386;2022-12-07T19:56:27;32.87;;;24.27;;
9438;SDS011;5176;42.622;25.386;2022-12-07T19:58:57;35.23;;;24.70;;
9438;SDS011;5176;42.622;25.386;2022-12-07T20:01:29;33.27;;;25.10;;
9438;SDS011;5176;42.622;25.386;2022-12-07T20:03:59;35.30;;;24.00;;
9438;SDS011;5176;42.622;25.386;2022-12-07T20:06:27;34.07;;;23.70;;
9438;SDS011;5176;42.622;25.386;2022-12-07T20:08:54;33.27;;;24.30;;
9438;SDS011;5176;42.622;25.386;2022-12-07T20:11:23;35.73;;;25.70;;
9438;SDS011;5176;42.622;25.386;2022-12-07T20:14:08;35.07;;;26.10;;
9438;SDS011;5176;42.622;25.386;2022-12-07T20:16:37;34.40;;;24.80;;